Time;durP1;ratioP1;P1;durP2;ratioP2;P2;SDS_P1;SDS_P2;PMS_P1;PMS_P2;Temp;Humidity;BMP_temperature;BMP_pressure;BME280_temperature;BME280_humidity;BME280_pressure;Samples;Min_cycle;Max_cycle;Signal;HPM_P1;HPM_P2
2023/01/07 00:00:32;;;;;;;35.70;24.77;;;9.50;99.90;;;;;;4988458;28;20042;-90
2023/01/07 00:02:57;;;;;;;35.72;25.35;;;9.50;99.90;;;;;;4969163;28;20463;-89
2023/01/07 00:05:23;;;;;;;36.35;25.88;;;9.50;99.90;;;;;;4975097;28;20043;-90
2023/01/07 00:07:48;;;;;;;31.67;23.15;;;9.50;99.90;;;;;;4959830;28;20039;-89
2023/01/07 00:10:14;;;;;;;30.00;22.83;;;9.60;99.90;;;;;;4977934;28;20046;-87
2023/01/07 00:12:39;;;;;;;39.33;26.02;;;9.60;99.90;;;;;;4976119;28;20042;-87
2023/01/07 00:15:06;;;;;;;31.98;22.83;;;9.70;99.90;;;;;;4959359;28;20054;-88
2023/01/07 00:17:31;;;;;;;24.15;19.17;;;9.70;99.90;;;;;;4972859;28;20117;-88
2023/01/07 00:19:57;;;;;;;29.30;23.08;;;9.70;99.90;;;;;;4979813;28;20065;-88
2023/01/07 00:22:22;;;;;;;31.00;23.08;;;9.80;99.90;;;;;;4964107;28;20484;-88
2023/01/07 00:24:48;;;;;;;31.23;22.58;;;9.80;99.90;;;;;;4959203;28;20123;-88
2023/01/07 00:27:14;;;;;;;33.42;23.38;;;9.80;99.90;;;;;;4975274;28;20046;-88
2023/01/07 00:29:39;;;;;;;33.58;23.10;;;9.80;99.90;;;;;;4990045;28;20057;-88
2023/01/07 00:32:05;;;;;;;26.98;20.65;;;9.90;99.90;;;;;;4995778;28;20097;-88
2023/01/07 00:34:30;;;;;;;33.28;23.05;;;9.90;99.90;;;;;;4977542;28;20038;-88
2023/01/07 00:37:48;;;;;;;33.28;24.00;;;9.90;99.90;;;;;;4978194;28;20034;-88
2023/01/07 00:39:41;;;;;;;27.35;20.73;;;10.00;99.90;;;;;;4976407;28;20050;-88
2023/01/07 00:44:53;;;;;;;29.73;22.67;;;10.00;99.90;;;;;;4948973;28;20054;-88
2023/01/07 00:47:18;;;;;;;24.02;19.02;;;10.10;99.90;;;;;;4994871;28;20050;-89
2023/01/07 00:49:45;;;;;;;28.20;22.05;;;10.10;99.90;;;;;;4995775;28;20113;-88
2023/01/07 00:52:11;;;;;;;30.65;23.10;;;10.10;99.90;;;;;;4997164;28;20479;-89
2023/01/07 00:54:36;;;;;;;26.95;21.25;;;10.10;99.90;;;;;;5012420;28;20092;-88
2023/01/07 00:57:02;;;;;;;22.73;19.05;;;10.10;99.90;;;;;;4997333;28;20137;-89
2023/01/07 00:59:28;;;;;;;29.48;22.48;;;10.10;99.90;;;;;;5015000;28;20137;-89
2023/01/07 01:01:53;;;;;;;24.50;20.42;;;10.10;99.90;;;;;;4997057;28;20100;-89
2023/01/07 01:04:19;;;;;;;29.08;22.27;;;10.20;99.90;;;;;;5014956;28;20045;-89
2023/01/07 01:06:44;;;;;;;27.35;21.23;;;10.20;99.90;;;;;;5015059;28;20414;-89
2023/01/07 01:09:11;;;;;;;23.33;19.02;;;10.20;99.90;;;;;;4979710;28;20069;-89
2023/01/07 01:11:36;;;;;;;27.50;21.30;;;10.20;99.90;;;;;;5011370;28;20046;-87
2023/01/07 01:14:02;;;;;;;23.95;19.45;;;10.20;99.90;;;;;;4997075;28;20089;-87
2023/01/07 01:16:28;;;;;;;24.52;20.13;;;10.30;99.90;;;;;;4995855;28;20042;-87
2023/01/07 01:18:53;;;;;;;23.90;19.77;;;10.30;99.90;;;;;;4996969;28;20124;-87
2023/01/07 01:21:19;;;;;;;25.25;20.52;;;10.30;99.90;;;;;;5013766;28;20048;-87
2023/01/07 01:23:45;;;;;;;21.10;17.90;;;10.30;99.90;;;;;;4995234;28;20453;-87
2023/01/07 01:26:16;;;;;;;19.73;17.60;;;10.30;99.90;;;;;;5000493;28;20089;-87
2023/01/07 01:28:42;;;;;;;23.00;20.05;;;10.40;99.90;;;;;;4984710;28;20038;-87
2023/01/07 01:31:08;;;;;;;24.27;20.58;;;10.30;99.90;;;;;;4995385;28;20088;-87
2023/01/07 01:33:34;;;;;;;24.35;20.25;;;10.30;99.90;;;;;;5012647;28;20414;-87
2023/01/07 01:36:03;;;;;;;25.17;21.48;;;10.30;99.90;;;;;;4994701;28;20117;-86
2023/01/07 01:38:29;;;;;;;21.17;18.17;;;10.30;99.90;;;;;;5010935;28;20038;-87
2023/01/07 01:40:54;;;;;;;23.73;20.90;;;10.30;99.90;;;;;;4996321;28;20054;-87
2023/01/07 01:43:28;;;;;;;25.42;20.38;;;10.40;99.90;;;;;;4995218;28;20402;-87
2023/01/07 01:45:54;;;;;;;27.80;22.65;;;10.40;99.90;;;;;;4994686;28;20050;-87
2023/01/07 01:48:21;;;;;;;22.50;20.08;;;10.40;99.90;;;;;;4995024;28;20099;-86
2023/01/07 01:50:50;;;;;;;23.98;20.13;;;10.40;99.90;;;;;;4985280;28;20069;-87
2023/01/07 01:53:22;;;;;;;22.23;19.52;;;10.50;99.90;;;;;;4976182;28;20384;-86
2023/01/07 01:55:55;;;;;;;26.20;21.65;;;10.50;99.90;;;;;;4994411;28;20038;-87
2023/01/07 01:58:30;;;;;;;;;;;10.50;99.90;;;;;;4993575;28;20483;-86
2023/01/07 02:00:55;;;;;;;24.00;20.90;;;10.40;99.90;;;;;;4977749;28;19972;-87
2023/01/07 02:03:24;;;;;;;22.67;20.23;;;10.50;99.90;;;;;;4976639;28;20039;-86
2023/01/07 02:05:50;;;;;;;24.73;21.35;;;10.50;99.90;;;;;;4999987;28;20037;-87
2023/01/07 02:08:20;;;;;;;21.00;18.80;;;10.50;99.90;;;;;;4999577;28;20054;-86
2023/01/07 02:10:47;;;;;;;21.63;19.35;;;10.50;99.90;;;;;;4976937;28;20049;-87
2023/01/07 02:14:07;;;;;;;26.63;22.25;;;10.50;99.90;;;;;;4975497;28;20146;-87
2023/01/07 02:16:43;;;;;;;27.65;22.40;;;10.50;99.90;;;;;;4932196;29;20108;-87
2023/01/07 02:19:33;;;;;;;24.08;21.05;;;10.50;99.90;;;;;;4985761;28;20048;-86
2023/01/07 02:22:11;;;;;;;21.13;18.92;;;10.60;99.90;;;;;;5013118;28;20393;-86
2023/01/07 02:24:53;;;;;;;25.55;20.38;;;10.60;99.90;;;;;;4995229;28;20050;-86
2023/01/07 02:27:37;;;;;;;24.95;21.15;;;10.60;99.90;;;;;;4993102;28;20050;-87
2023/01/07 02:30:14;;;;;;;25.10;20.48;;;10.60;99.90;;;;;;4995504;28;20061;-87
2023/01/07 02:32:51;;;;;;;20.67;18.50;;;10.60;99.90;;;;;;4995375;28;20143;-87
2023/01/07 02:35:41;;;;;;;22.02;18.48;;;10.60;99.90;;;;;;5013407;28;20118;-87
2023/01/07 02:38:15;;;;;;;18.80;16.90;;;10.60;99.90;;;;;;4995547;28;20053;-86
2023/01/07 02:41:11;;;;;;;21.95;19.63;;;10.60;99.90;;;;;;5009321;28;20057;-87
2023/01/07 02:44:02;;;;;;;22.63;19.90;;;10.60;99.90;;;;;;4976429;28;20043;-87
2023/01/07 02:46:53;;;;;;;21.58;19.20;;;10.60;99.90;;;;;;4993138;28;20046;-87
2023/01/07 02:49:18;;;;;;;24.08;20.25;;;10.60;99.90;;;;;;4976008;28;20057;-87
2023/01/07 02:51:45;;;;;;;20.63;17.98;;;10.60;99.90;;;;;;4975996;28;20054;-87
2023/01/07 02:54:22;;;;;;;22.58;19.65;;;10.60;99.90;;;;;;4992955;28;20050;-88
2023/01/07 02:57:09;;;;;;;21.10;18.50;;;10.70;99.90;;;;;;5007506;28;20037;-87
2023/01/07 02:59:56;;;;;;;20.55;18.23;;;10.70;99.90;;;;;;5013239;28;20042;-87
2023/01/07 03:02:58;;;;;;;22.05;19.75;;;10.70;99.90;;;;;;4994580;28;20045;-87
2023/01/07 03:05:29;;;;;;;21.13;18.80;;;10.70;99.90;;;;;;5017041;28;20045;-87
2023/01/07 03:08:16;;;;;;;23.95;19.25;;;10.70;99.90;;;;;;5016380;28;20482;-88
2023/01/07 03:10:58;;;;;;;21.13;18.88;;;10.70;99.90;;;;;;5002701;28;20513;-87
2023/01/07 03:13:32;;;;;;;20.45;18.20;;;10.70;99.90;;;;;;5019090;28;20073;-88
2023/01/07 03:16:18;;;;;;;19.65;17.50;;;10.70;99.90;;;;;;5036365;28;20140;-87
2023/01/07 03:18:58;;;;;;;21.35;18.40;;;10.70;99.90;;;;;;5018689;28;20098;-88
2023/01/07 03:21:26;;;;;;;21.23;18.92;;;10.70;99.90;;;;;;5017709;28;20160;-87
2023/01/07 03:23:55;;;;;;;20.92;18.75;;;10.70;99.90;;;;;;5036646;28;20046;-87
2023/01/07 03:26:27;;;;;;;19.67;17.67;;;10.70;99.90;;;;;;5007219;28;20514;-87
2023/01/07 03:28:54;;;;;;;20.75;18.42;;;10.70;99.90;;;;;;4990604;28;20101;-87
2023/01/07 03:31:21;;;;;;;19.92;17.77;;;10.70;99.90;;;;;;4998706;28;20088;-87
2023/01/07 03:33:51;;;;;;;20.83;18.48;;;10.70;99.90;;;;;;5016795;28;20049;-88
2023/01/07 03:36:21;;;;;;;20.10;18.00;;;10.70;99.90;;;;;;4983627;28;20049;-88
2023/01/07 03:38:49;;;;;;;22.42;18.42;;;10.70;99.90;;;;;;4979491;28;20081;-88
2023/01/07 03:42:38;;;;;;;19.75;17.23;;;10.70;99.90;;;;;;4978987;28;20047;-87
2023/01/07 03:44:00;;;;;;;19.65;17.23;;;10.70;99.90;;;;;;5001464;28;20490;-89
2023/01/07 03:46:26;;;;;;;22.88;17.95;;;10.70;99.90;;;;;;5016042;28;20148;-88
2023/01/07 03:48:52;;;;;;;18.85;16.85;;;10.70;99.90;;;;;;4998897;28;20077;-88
2023/01/07 03:51:17;;;;;;;22.80;16.55;;;10.70;99.90;;;;;;4997653;28;20080;-88
2023/01/07 03:53:43;;;;;;;19.35;16.02;;;10.70;99.90;;;;;;4997764;28;20076;-88
2023/01/07 03:56:09;;;;;;;22.88;16.80;;;10.70;99.90;;;;;;5015815;28;20046;-88
2023/01/07 03:58:34;;;;;;;22.02;17.48;;;10.60;99.90;;;;;;4997772;28;20076;-88
2023/01/07 04:01:00;;;;;;;19.35;15.77;;;10.60;99.90;;;;;;4998658;28;20049;-88
2023/01/07 04:03:25;;;;;;;17.77;15.90;;;10.70;99.90;;;;;;5015783;28;20041;-88
2023/01/07 04:05:51;;;;;;;21.67;17.10;;;10.70;99.90;;;;;;5015073;28;20116;-88
2023/01/07 04:08:16;;;;;;;22.27;17.73;;;10.60;99.90;;;;;;4983964;28;20054;-88
2023/01/07 04:10:42;;;;;;;21.25;17.33;;;10.60;99.90;;;;;;4995748;28;20447;-88
2023/01/07 04:13:08;;;;;;;22.52;17.58;;;10.60;99.90;;;;;;4978718;28;20043;-89
2023/01/07 04:15:33;;;;;;;20.35;17.33;;;10.60;99.90;;;;;;4995661;28;20042;-88
2023/01/07 04:17:59;;;;;;;22.48;16.38;;;10.60;99.90;;;;;;5010839;28;20042;-87
2023/01/07 04:20:25;;;;;;;21.67;16.38;;;10.60;99.90;;;;;;4978553;28;20034;-88
2023/01/07 04:22:50;;;;;;;21.98;16.42;;;10.60;99.90;;;;;;5007863;28;20197;-89
2023/01/07 04:25:16;;;;;;;23.08;17.15;;;10.60;99.90;;;;;;4997270;28;20133;-88
2023/01/07 04:27:41;;;;;;;20.58;16.83;;;10.60;99.90;;;;;;5015829;28;20151;-88
2023/01/07 04:30:08;;;;;;;21.13;15.85;;;10.60;99.90;;;;;;4997807;28;20046;-88
2023/01/07 04:32:33;;;;;;;19.55;15.45;;;10.60;99.90;;;;;;4978953;28;20163;-87
2023/01/07 04:34:59;;;;;;;22.92;15.82;;;10.60;99.90;;;;;;4995929;28;20169;-88
2023/01/07 04:37:24;;;;;;;16.98;14.93;;;10.60;99.90;;;;;;4995478;28;20073;-89
2023/01/07 04:39:50;;;;;;;19.15;14.95;;;10.60;99.90;;;;;;5006221;28;20045;-88
2023/01/07 04:42:16;;;;;;;19.48;14.63;;;10.60;99.90;;;;;;4997532;28;20501;-88
2023/01/07 04:44:41;;;;;;;17.63;14.35;;;10.60;99.90;;;;;;4988623;28;20042;-89
2023/01/07 04:47:07;;;;;;;20.77;14.35;;;10.60;99.90;;;;;;4982298;28;20481;-88
2023/01/07 04:49:32;;;;;;;16.92;14.77;;;10.60;99.90;;;;;;4997222;28;20073;-89
2023/01/07 04:51:58;;;;;;;18.48;13.55;;;10.60;99.90;;;;;;5011220;28;20046;-89
2023/01/07 04:54:23;;;;;;;20.38;14.07;;;10.60;99.90;;;;;;4977296;28;20430;-89
2023/01/07 04:56:52;;;;;;;18.33;13.18;;;10.60;99.90;;;;;;4979280;28;20038;-89
2023/01/07 04:59:17;;;;;;;16.77;12.95;;;10.60;99.90;;;;;;4981799;28;20041;-88
2023/01/07 05:01:43;;;;;;;18.30;13.07;;;10.60;99.90;;;;;;5004251;28;20065;-88
2023/01/07 05:04:09;;;;;;;16.13;13.20;;;10.50;99.90;;;;;;4996691;28;20078;-88
2023/01/07 05:06:34;;;;;;;16.67;12.38;;;10.60;99.90;;;;;;4977987;28;20487;-88
2023/01/07 05:09:00;;;;;;;16.73;12.43;;;10.60;99.90;;;;;;4977404;28;20049;-88
2023/01/07 05:11:25;;;;;;;16.45;12.60;;;10.60;99.90;;;;;;4977647;28;20542;-89
2023/01/07 05:13:51;;;;;;;19.60;12.30;;;10.60;99.90;;;;;;4994751;28;20045;-88
2023/01/07 05:16:16;;;;;;;16.60;12.15;;;10.60;99.90;;;;;;5006132;28;20052;-88
2023/01/07 05:18:42;;;;;;;16.10;12.05;;;10.60;99.90;;;;;;5004307;28;20042;-88
2023/01/07 05:21:09;;;;;;;14.60;11.60;;;10.60;99.90;;;;;;5009178;28;20053;-88
2023/01/07 05:23:35;;;;;;;15.90;10.63;;;10.60;99.90;;;;;;4977622;28;20050;-89
2023/01/07 05:26:00;;;;;;;15.65;11.27;;;10.60;99.90;;;;;;4994402;28;20053;-89
2023/01/07 05:28:26;;;;;;;15.52;11.05;;;10.60;99.90;;;;;;4994302;28;20053;-89
2023/01/07 05:30:52;;;;;;;16.67;10.75;;;10.50;99.90;;;;;;5014081;28;20037;-89
2023/01/07 05:33:17;;;;;;;17.48;10.88;;;10.60;99.90;;;;;;4996564;28;20045;-88
2023/01/07 05:35:45;;;;;;;17.77;11.23;;;10.60;99.90;;;;;;5013963;28;20122;-89
2023/01/07 05:38:11;;;;;;;15.32;10.23;;;10.60;99.90;;;;;;5013785;28;20132;-88
2023/01/07 05:40:37;;;;;;;15.27;10.82;;;10.60;99.90;;;;;;4996399;28;20069;-89
2023/01/07 05:43:02;;;;;;;13.60;9.98;;;10.60;99.90;;;;;;4996096;28;20042;-88
2023/01/07 05:45:28;;;;;;;15.63;10.05;;;10.60;99.90;;;;;;4996333;28;20081;-88
2023/01/07 05:47:53;;;;;;;13.43;9.65;;;10.60;99.90;;;;;;4994826;28;20379;-89
2023/01/07 05:50:19;;;;;;;15.60;9.65;;;10.60;99.90;;;;;;4997104;28;20128;-88
2023/01/07 05:52:44;;;;;;;16.13;9.93;;;10.60;99.90;;;;;;4987078;28;20101;-88
2023/01/07 05:55:10;;;;;;;14.38;9.75;;;10.60;99.90;;;;;;4988076;28;20116;-87
2023/01/07 05:57:36;;;;;;;16.20;10.02;;;10.60;99.90;;;;;;4978080;28;20038;-89
2023/01/07 06:00:02;;;;;;;15.70;9.70;;;10.50;99.90;;;;;;5002806;28;20092;-89
2023/01/07 06:02:31;;;;;;;13.43;8.73;;;10.50;99.90;;;;;;4995709;28;20387;-88
2023/01/07 06:04:57;;;;;;;14.90;9.23;;;10.60;99.90;;;;;;5012837;28;20078;-89
2023/01/07 06:07:22;;;;;;;16.10;9.00;;;10.60;99.90;;;;;;5000836;28;20599;-91
2023/01/07 06:09:48;;;;;;;15.15;9.18;;;10.60;99.90;;;;;;4980472;28;20038;-92
2023/01/07 06:12:13;;;;;;;12.43;8.43;;;10.50;99.90;;;;;;4986132;28;20043;-91
2023/01/07 06:14:39;;;;;;;13.82;8.93;;;10.60;99.90;;;;;;4988924;28;20421;-92
2023/01/07 06:17:04;;;;;;;14.68;8.82;;;10.50;99.90;;;;;;4997079;28;20065;-91
2023/01/07 06:19:30;;;;;;;16.20;9.15;;;10.50;99.90;;;;;;5002828;28;20045;-92
2023/01/07 06:21:56;;;;;;;11.93;8.73;;;10.60;99.90;;;;;;4996366;28;20041;-91
2023/01/07 06:24:21;;;;;;;15.38;8.73;;;10.60;99.90;;;;;;5013429;28;20618;-91
2023/01/07 06:26:47;;;;;;;11.25;7.95;;;10.50;99.90;;;;;;5014006;28;20046;-91
2023/01/07 06:29:12;;;;;;;12.20;8.50;;;10.50;99.90;;;;;;4994812;28;20038;-91
2023/01/07 06:31:45;;;;;;;14.18;8.65;;;10.50;99.90;;;;;;4985810;28;20047;-93
2023/01/07 06:34:11;;;;;;;12.98;8.40;;;10.50;99.90;;;;;;4995196;28;20044;-90
2023/01/07 06:36:36;;;;;;;12.00;8.75;;;10.50;99.90;;;;;;5012342;28;20041;-92
2023/01/07 06:39:02;;;;;;;15.52;7.80;;;10.50;99.90;;;;;;4995228;28;20072;-92
2023/01/07 06:41:28;;;;;;;15.20;8.15;;;10.50;99.90;;;;;;5013412;28;20045;-92
2023/01/07 06:43:53;;;;;;;12.25;7.47;;;10.50;99.90;;;;;;5004112;28;20085;-92
2023/01/07 06:46:19;;;;;;;12.40;7.65;;;10.50;99.90;;;;;;4997789;28;20498;-91
2023/01/07 06:48:44;;;;;;;11.52;7.60;;;10.50;99.90;;;;;;4985754;28;20035;-92
2023/01/07 06:51:10;;;;;;;11.95;7.32;;;10.50;99.90;;;;;;4964387;28;20059;-92
2023/01/07 06:53:36;;;;;;;12.60;8.30;;;10.50;99.90;;;;;;4974292;28;20070;-92
2023/01/07 06:56:01;;;;;;;12.52;7.82;;;10.50;99.90;;;;;;4967228;28;20057;-91
2023/01/07 06:58:27;;;;;;;15.48;7.13;;;10.50;99.90;;;;;;4978818;28;20173;-92
2023/01/07 07:00:52;;;;;;;11.82;7.07;;;10.50;99.90;;;;;;4993857;28;20399;-91
2023/01/07 07:03:18;;;;;;;8.93;6.72;;;10.50;99.90;;;;;;4959796;28;20138;-92
2023/01/07 07:05:44;;;;;;;10.65;6.75;;;10.50;99.90;;;;;;4957268;28;20047;-91
2023/01/07 07:08:10;;;;;;;11.32;7.03;;;10.50;99.90;;;;;;4970342;28;20409;-91
2023/01/07 07:10:35;;;;;;;9.57;6.50;;;10.50;99.90;;;;;;4980031;28;20594;-92
2023/01/07 07:13:01;;;;;;;10.48;6.72;;;10.50;99.90;;;;;;4966551;28;20049;-93
2023/01/07 07:15:27;;;;;;;15.02;6.85;;;10.50;99.90;;;;;;4977039;28;20419;-92
2023/01/07 07:17:52;;;;;;;10.23;6.22;;;10.50;99.90;;;;;;4978213;28;20511;-92
2023/01/07 07:20:18;;;;;;;13.10;6.70;;;10.60;99.90;;;;;;4981481;28;20506;-90
2023/01/07 07:22:45;;;;;;;11.18;6.32;;;10.50;99.90;;;;;;4984744;28;20463;-90
2023/01/07 07:25:11;;;;;;;11.27;6.50;;;10.60;99.90;;;;;;4966740;28;20529;-95
2023/01/07 07:27:36;;;;;;;8.93;5.90;;;10.50;99.90;;;;;;4964082;28;20046;-91
2023/01/07 07:30:03;;;;;;;12.75;5.88;;;10.50;99.90;;;;;;4989366;28;20050;-92
2023/01/07 07:32:28;;;;;;;10.77;5.97;;;10.50;99.90;;;;;;4968886;28;20491;-92
2023/01/07 07:34:55;;;;;;;8.90;5.78;;;10.50;99.90;;;;;;4967162;28;20078;-91
2023/01/07 07:37:23;;;;;;;11.88;5.82;;;10.50;99.90;;;;;;4973509;28;20047;-92
2023/01/07 07:39:48;;;;;;;9.45;5.53;;;10.50;99.90;;;;;;4957033;28;20043;-91
2023/01/07 07:42:14;;;;;;;10.07;5.10;;;10.50;99.90;;;;;;4959930;28;20133;-90
2023/01/07 07:44:40;;;;;;;10.57;5.80;;;10.60;99.90;;;;;;4988415;28;20537;-91
2023/01/07 07:47:05;;;;;;;9.63;5.10;;;10.50;99.90;;;;;;4968071;28;20038;-91
2023/01/07 07:49:33;;;;;;;9.25;5.60;;;10.50;99.90;;;;;;4985929;28;20133;-92
2023/01/07 07:51:59;;;;;;;9.43;5.60;;;10.50;99.90;;;;;;4991657;28;20058;-91
2023/01/07 07:54:28;;;;;;;8.27;5.05;;;10.50;99.90;;;;;;4978836;28;20046;-92
2023/01/07 07:56:53;;;;;;;9.38;5.53;;;10.50;99.90;;;;;;4980345;28;20050;-91
2023/01/07 07:59:19;;;;;;;11.38;5.28;;;10.50;99.90;;;;;;4995488;28;20049;-91
2023/01/07 08:01:44;;;;;;;10.88;5.30;;;10.50;99.90;;;;;;4999114;28;20049;-93
2023/01/07 08:04:10;;;;;;;9.43;5.45;;;10.50;99.90;;;;;;4984191;28;20395;-92
2023/01/07 08:06:36;;;;;;;7.63;5.03;;;10.40;99.90;;;;;;4993112;28;20102;-91
2023/01/07 08:09:01;;;;;;;9.25;4.80;;;10.40;99.90;;;;;;4998720;28;20041;-93
2023/01/07 08:11:33;;;;;;;8.27;5.10;;;10.40;99.90;;;;;;4993983;28;20045;-92
2023/01/07 08:14:02;;;;;;;7.45;4.82;;;10.40;99.90;;;;;;4990785;28;20045;-93
2023/01/07 08:16:30;;;;;;;8.07;5.13;;;10.40;99.90;;;;;;4989135;28;20046;-95
2023/01/07 08:18:56;;;;;;;8.13;4.75;;;10.30;99.90;;;;;;5002777;28;20115;-91
2023/01/07 08:21:24;;;;;;;8.77;4.82;;;10.40;99.90;;;;;;4987401;28;20507;-93
2023/01/07 08:23:50;;;;;;;7.22;4.68;;;10.30;99.90;;;;;;4986092;28;20054;-92
2023/01/07 08:26:18;;;;;;;7.22;4.40;;;10.30;99.90;;;;;;4999658;28;20129;-94
2023/01/07 08:28:43;;;;;;;9.20;4.85;;;10.30;99.90;;;;;;4986614;28;20030;-92
2023/01/07 08:31:09;;;;;;;7.88;4.68;;;10.30;99.90;;;;;;4998554;28;20524;-92
2023/01/07 08:33:37;;;;;;;11.27;4.68;;;10.30;99.90;;;;;;4991887;28;20101;-90
2023/01/07 08:36:08;;;;;;;8.98;4.70;;;10.20;99.90;;;;;;4990058;28;20078;-91
2023/01/07 08:38:33;;;;;;;9.13;4.60;;;10.30;99.90;;;;;;5010370;28;20129;-92
2023/01/07 08:40:59;;;;;;;7.30;4.88;;;10.30;99.90;;;;;;4995056;28;20137;-91
2023/01/07 08:43:29;;;;;;;6.38;4.10;;;10.30;99.90;;;;;;4981673;28;20035;-91
2023/01/07 08:45:55;;;;;;;8.13;4.65;;;10.30;99.90;;;;;;4981834;28;20046;-91
2023/01/07 08:48:21;;;;;;;7.22;4.07;;;10.20;99.90;;;;;;5002284;28;20034;-89
2023/01/07 08:50:52;;;;;;;7.85;4.68;;;10.20;99.90;;;;;;4995120;28;20057;-90
2023/01/07 08:53:18;;;;;;;8.75;4.53;;;10.20;99.90;;;;;;4983995;28;20046;-90
2023/01/07 08:55:44;;;;;;;8.18;4.20;;;10.20;99.90;;;;;;4991712;28;20038;-92
2023/01/07 08:58:10;;;;;;;11.38;4.60;;;10.20;99.90;;;;;;4995734;28;20372;-91
2023/01/07 09:00:35;;;;;;;8.15;3.95;;;10.20;99.90;;;;;;4983415;28;20033;-96
2023/01/07 09:03:02;;;;;;;9.20;3.95;;;10.20;99.90;;;;;;4998111;28;20108;-89
2023/01/07 09:05:28;;;;;;;6.80;4.60;;;10.20;99.90;;;;;;4978078;28;20046;-92
2023/01/07 09:07:55;;;;;;;8.38;4.63;;;10.20;99.90;;;;;;4994624;28;20514;-90
2023/01/07 09:10:21;;;;;;;7.85;4.20;;;10.20;99.90;;;;;;4976990;28;20052;-91
2023/01/07 09:12:47;;;;;;;7.80;4.80;;;10.20;99.90;;;;;;4978056;28;20046;-91
2023/01/07 09:15:13;;;;;;;7.75;4.47;;;10.20;99.90;;;;;;4994587;28;20125;-91
2023/01/07 09:17:38;;;;;;;7.60;4.60;;;10.20;99.90;;;;;;4977850;28;20479;-91
2023/01/07 09:20:08;;;;;;;7.00;4.65;;;10.20;99.90;;;;;;4994545;28;20093;-91
2023/01/07 09:22:37;;;;;;;9.65;4.43;;;10.20;99.90;;;;;;4977739;28;20125;-91
2023/01/07 09:25:04;;;;;;;6.38;4.00;;;10.20;99.90;;;;;;4995095;28;20049;-91
2023/01/07 09:27:30;;;;;;;6.93;4.45;;;10.10;99.90;;;;;;4976804;28;20042;-91
2023/01/07 09:29:57;;;;;;;7.88;4.55;;;10.20;99.90;;;;;;4977413;28;20403;-91
2023/01/07 09:32:27;;;;;;;6.82;4.47;;;10.20;99.90;;;;;;4977434;28;20046;-91
2023/01/07 09:34:54;;;;;;;7.38;3.78;;;10.20;99.90;;;;;;4994222;28;20034;-91
2023/01/07 09:37:20;;;;;;;8.02;4.30;;;10.20;99.90;;;;;;4977331;28;20100;-91
2023/01/07 09:39:45;;;;;;;7.65;4.10;;;10.20;99.90;;;;;;4977763;28;20042;-91
2023/01/07 09:42:42;;;;;;;7.18;3.80;;;10.20;99.90;;;;;;4976356;28;20050;-91
2023/01/07 09:45:16;;;;;;;9.27;3.38;;;10.10;99.90;;;;;;4994630;28;20096;-91
2023/01/07 09:47:45;;;;;;;7.00;3.47;;;10.10;99.90;;;;;;4977407;28;20105;-91
2023/01/07 09:50:11;;;;;;;8.20;3.72;;;10.10;99.90;;;;;;4976172;28;20054;-91
2023/01/07 09:52:42;;;;;;;8.18;3.80;;;10.10;99.90;;;;;;4977353;28;20141;-91
2023/01/07 09:55:19;;;;;;;7.13;3.53;;;10.20;99.90;;;;;;4994152;28;20053;-91
2023/01/07 09:57:45;;;;;;;7.82;3.60;;;10.10;99.90;;;;;;4994800;28;20038;-91
2023/01/07 10:00:22;;;;;;;7.50;3.40;;;10.10;99.90;;;;;;4994364;28;20049;-91
2023/01/07 10:03:22;;;;;;;6.22;3.60;;;10.10;99.90;;;;;;4993657;28;20459;-91
2023/01/07 10:05:53;;;;;;;6.28;3.45;;;10.10;99.90;;;;;;4994602;28;20077;-91
2023/01/07 10:08:49;;;;;;;6.78;3.30;;;10.10;99.90;;;;;;4994248;28;20046;-91
2023/01/07 10:11:28;;;;;;;7.07;2.95;;;10.10;99.90;;;;;;4976161;28;20050;-90
2023/01/07 10:14:18;;;;;;;6.63;3.20;;;10.10;99.90;;;;;;4993614;28;20396;-91
2023/01/07 10:16:59;;;;;;;6.53;2.70;;;10.10;99.90;;;;;;4976297;28;20053;-91
2023/01/07 10:19:34;;;;;;;6.75;3.22;;;10.10;99.90;;;;;;4976839;28;20125;-91
2023/01/07 10:22:08;;;;;;;5.18;3.13;;;10.10;99.90;;;;;;4976940;28;20073;-91
2023/01/07 10:24:40;;;;;;;7.40;2.85;;;10.10;99.90;;;;;;4976369;28;20403;-90
2023/01/07 10:27:14;;;;;;;5.45;3.15;;;10.20;99.90;;;;;;4976878;28;20156;-91
2023/01/07 10:29:53;;;;;;;5.65;2.83;;;10.20;99.90;;;;;;4976558;28;20042;-91
2023/01/07 10:32:23;;;;;;;5.82;3.10;;;10.20;99.90;;;;;;4975805;28;20049;-90
2023/01/07 10:34:52;;;;;;;6.88;3.00;;;10.20;99.90;;;;;;4976824;28;20050;-90
2023/01/07 10:37:39;;;;;;;6.35;2.63;;;10.20;99.90;;;;;;4976327;28;20050;-90
2023/01/07 10:40:11;;;;;;;5.38;2.83;;;10.20;99.90;;;;;;4976514;28;20497;-91
2023/01/07 10:42:57;;;;;;;8.23;2.97;;;10.20;99.90;;;;;;4994133;28;20133;-90
2023/01/07 10:45:40;;;;;;;4.30;2.25;;;10.30;99.90;;;;;;4975888;28;20042;-91
2023/01/07 10:48:26;;;;;;;5.78;2.67;;;10.30;99.90;;;;;;4994866;28;20054;-93
2023/01/07 10:51:11;;;;;;;6.07;2.50;;;10.30;99.90;;;;;;4986546;28;20054;-92
2023/01/07 10:53:54;;;;;;;3.65;2.00;;;10.30;99.90;;;;;;4994078;28;20050;-91
2023/01/07 10:56:33;;;;;;;5.97;2.60;;;10.30;99.90;;;;;;5009627;28;20562;-92
2023/01/07 10:59:00;;;;;;;4.80;2.25;;;10.30;99.90;;;;;;4996276;28;20555;-91
2023/01/07 11:01:35;;;;;;;4.85;1.83;;;10.30;99.90;;;;;;4993450;28;20491;-92
2023/01/07 11:04:01;;;;;;;5.07;2.10;;;10.40;99.90;;;;;;4977002;28;20082;-92
2023/01/07 11:07:04;;;;;;;3.78;2.00;;;10.40;99.90;;;;;;4975650;28;20051;-92
2023/01/07 11:09:35;;;;;;;4.47;2.10;;;10.40;99.90;;;;;;4987572;28;20482;-92
2023/01/07 11:12:23;;;;;;;4.55;1.90;;;10.40;99.90;;;;;;4977053;28;20065;-92
2023/01/07 11:14:50;;;;;;;3.90;1.98;;;10.50;99.90;;;;;;4982830;28;20045;-93
2023/01/07 11:17:28;;;;;;;4.32;2.10;;;10.50;99.90;;;;;;5004847;28;20169;-92
2023/01/07 11:19:53;;;;;;;3.67;1.60;;;10.50;99.90;;;;;;4993546;28;20045;-91
2023/01/07 11:22:25;;;;;;;5.18;1.63;;;10.50;99.90;;;;;;5015339;28;20042;-92
2023/01/07 11:24:55;;;;;;;6.28;1.70;;;10.60;99.90;;;;;;5014582;28;20050;-92
2023/01/07 11:27:25;;;;;;;4.88;1.95;;;10.60;99.90;;;;;;4997913;28;20034;-93
2023/01/07 11:29:59;;;;;;;4.55;1.77;;;10.60;99.90;;;;;;4998669;28;20534;-92
2023/01/07 11:32:34;;;;;;;4.15;1.92;;;10.60;99.90;;;;;;4995460;28;20042;-92
2023/01/07 11:35:08;;;;;;;5.45;1.95;;;10.60;99.90;;;;;;4985901;28;20046;-91
2023/01/07 11:37:42;;;;;;;3.50;1.98;;;10.60;99.90;;;;;;4987423;28;20065;-92
2023/01/07 11:40:14;;;;;;;4.50;2.05;;;10.60;99.90;;;;;;4986386;28;20050;-92
2023/01/07 11:42:47;;;;;;;5.00;1.90;;;10.70;99.90;;;;;;4991682;28;20046;-93
2023/01/07 11:45:14;;;;;;;4.15;1.88;;;10.70;99.90;;;;;;4991618;28;20546;-93
2023/01/07 11:47:47;;;;;;;3.83;1.92;;;10.70;99.90;;;;;;5013357;28;20042;-92
2023/01/07 11:50:23;;;;;;;;;;;10.70;99.90;;;;;;4996866;28;20061;-91
2023/01/07 11:53:15;;;;;;;3.22;1.50;;;10.60;99.90;;;;;;4980240;28;19937;-92
2023/01/07 11:55:56;;;;;;;3.75;1.70;;;10.60;99.90;;;;;;4991521;28;20054;-93
2023/01/07 11:58:23;;;;;;;3.47;1.85;;;10.70;99.90;;;;;;5016196;28;20080;-92
2023/01/07 12:01:07;;;;;;;5.07;1.73;;;10.70;99.90;;;;;;4991213;28;20070;-93
2023/01/07 12:03:33;;;;;;;;;;;10.70;99.90;;;;;;4989774;28;20120;-93
2023/01/07 12:06:06;;;;;;;5.43;2.20;;;10.60;99.90;;;;;;4988788;28;20326;-91
2023/01/07 12:08:32;;;;;;;4.53;1.88;;;10.70;99.90;;;;;;4980886;28;20046;-93
2023/01/07 12:11:04;;;;;;;4.22;1.73;;;10.70;99.90;;;;;;5002868;28;20078;-93
2023/01/07 12:13:31;;;;;;;4.22;1.80;;;10.70;99.90;;;;;;5004664;28;20039;-91
2023/01/07 12:16:06;;;;;;;3.33;1.88;;;10.80;99.90;;;;;;5005110;28;20498;-92
2023/01/07 12:18:44;;;;;;;3.03;1.70;;;10.70;99.90;;;;;;4988381;28;20101;-92
2023/01/07 12:21:32;;;;;;;4.25;2.00;;;10.70;99.90;;;;;;5005196;28;20121;-92
2023/01/07 12:24:09;;;;;;;5.25;1.60;;;10.70;99.90;;;;;;4994158;28;20437;-92
2023/01/07 12:26:56;;;;;;;4.22;1.70;;;10.80;99.90;;;;;;4992216;28;20030;-92
2023/01/07 12:29:56;;;;;;;6.22;1.70;;;10.80;99.90;;;;;;5002596;28;20119;-93
2023/01/07 12:32:28;;;;;;;2.70;1.50;;;10.80;99.90;;;;;;4997976;28;20053;-92
2023/01/07 12:35:11;;;;;;;3.30;1.58;;;10.80;99.90;;;;;;4979327;28;20043;-92
2023/01/07 12:37:57;;;;;;;3.70;1.60;;;10.80;99.90;;;;;;4978275;28;20078;-93
2023/01/07 12:40:48;;;;;;;3.97;1.63;;;10.80;99.90;;;;;;4983065;28;20069;-92
2023/01/07 12:43:38;;;;;;;4.40;1.75;;;10.80;99.90;;;;;;4997413;28;20042;-94
2023/01/07 12:46:06;;;;;;;3.60;1.58;;;10.80;99.90;;;;;;4993166;28;20092;-92
2023/01/07 12:48:46;;;;;;;3.88;1.63;;;10.90;99.90;;;;;;5000724;28;20045;-93
2023/01/07 12:51:26;;;;;;;4.97;1.90;;;10.80;99.90;;;;;;4978153;28;20050;-94
2023/01/07 12:54:04;;;;;;;5.57;1.85;;;10.90;99.90;;;;;;4978548;28;20050;-93
2023/01/07 12:56:42;;;;;;;3.60;1.55;;;10.90;99.90;;;;;;4996093;28;20053;-93